Time;durP1;ratioP1;P1;durP2;ratioP2;P2;SDS_P1;SDS_P2;PMS_P1;PMS_P2;Temp;Humidity;BMP_temperature;BMP_pressure;BME280_temperature;BME280_humidity;BME280_pressure;Samples;Min_cycle;Max_cycle;Signal;HPM_P1;HPM_P2
2023/10/28 00:01:03;;;;;;;23.55;11.63;;;9.90;99.90;;;;;;5039453;28;20064;-79
2023/10/28 00:03:29;;;;;;;25.58;11.50;;;9.90;99.90;;;;;;5042022;28;20021;-77
2023/10/28 00:05:55;;;;;;;23.85;11.30;;;9.90;99.90;;;;;;5040666;28;20025;-79
2023/10/28 00:08:21;;;;;;;28.00;12.82;;;9.90;99.90;;;;;;5040598;28;20026;-79
2023/10/28 00:10:48;;;;;;;24.80;11.98;;;9.90;99.90;;;;;;5042311;28;20099;-78
2023/10/28 00:13:14;;;;;;;25.38;12.10;;;9.90;99.90;;;;;;5039874;28;20018;-80
2023/10/28 00:15:40;;;;;;;25.17;11.57;;;9.90;99.90;;;;;;5035421;28;20033;-79
2023/10/28 00:18:08;;;;;;;26.98;12.25;;;9.90;99.90;;;;;;5036995;28;20033;-80
2023/10/28 00:20:35;;;;;;;25.58;12.90;;;9.90;99.90;;;;;;5038174;28;20682;-80
2023/10/28 00:23:03;;;;;;;23.80;10.88;;;10.10;99.90;;;;;;5038209;28;20027;-79
2023/10/28 00:25:31;;;;;;;28.88;11.45;;;9.90;99.90;;;;;;5037773;28;20448;-79
2023/10/28 00:27:57;;;;;;;23.50;11.48;;;10.00;99.90;;;;;;5037193;28;20029;-79
2023/10/28 00:30:23;;;;;;;27.27;11.45;;;10.00;99.90;;;;;;5038959;28;20057;-78
2023/10/28 00:32:54;;;;;;;25.00;11.30;;;9.90;99.90;;;;;;5039132;28;20277;-80
2023/10/28 00:35:23;;;;;;;25.02;11.73;;;10.00;99.90;;;;;;5037637;28;20026;-80
2023/10/28 00:37:49;;;;;;;27.20;11.85;;;10.00;99.90;;;;;;5035065;28;20021;-80
2023/10/28 00:40:15;;;;;;;23.35;11.43;;;9.90;99.90;;;;;;5037736;28;20065;-79
2023/10/28 00:42:41;;;;;;;21.63;11.27;;;10.00;99.90;;;;;;5037742;28;20214;-77
2023/10/28 00:45:11;;;;;;;21.52;11.40;;;10.00;99.90;;;;;;5037608;28;20052;-79
2023/10/28 00:47:48;;;;;;;23.45;11.23;;;9.90;99.90;;;;;;5038063;28;20026;-80
2023/10/28 00:50:15;;;;;;;21.30;10.57;;;9.90;99.90;;;;;;5036216;28;20045;-80
2023/10/28 00:52:46;;;;;;;28.23;11.57;;;9.90;99.90;;;;;;5037364;28;20028;-79
2023/10/28 00:55:14;;;;;;;21.85;10.73;;;10.00;99.90;;;;;;5036303;28;20037;-79
2023/10/28 00:57:42;;;;;;;23.67;10.90;;;10.00;99.90;;;;;;5038799;28;20036;-79
2023/10/28 01:00:10;;;;;;;24.17;11.52;;;10.00;99.90;;;;;;5036192;28;20037;-79
2023/10/28 01:02:38;;;;;;;23.25;10.70;;;10.00;99.90;;;;;;5036684;28;20085;-79
2023/10/28 01:05:05;;;;;;;20.80;10.27;;;10.00;99.90;;;;;;5033054;28;20112;-80
2023/10/28 01:07:34;;;;;;;20.73;10.77;;;9.90;99.90;;;;;;5035641;28;20033;-79
2023/10/28 01:10:00;;;;;;;20.13;10.10;;;10.00;99.90;;;;;;5035099;28;20045;-79
2023/10/28 01:12:26;;;;;;;21.00;11.10;;;10.00;99.90;;;;;;5037144;28;20035;-79
2023/10/28 01:14:53;;;;;;;18.77;9.73;;;10.00;99.90;;;;;;5036800;28;20160;-79
2023/10/28 01:17:21;;;;;;;28.08;10.43;;;10.00;99.90;;;;;;5036024;28;20047;-76
2023/10/28 01:19:47;;;;;;;21.17;9.90;;;10.00;99.90;;;;;;5036250;28;20052;-78
2023/10/28 01:22:13;;;;;;;26.98;11.05;;;10.00;99.90;;;;;;5036138;28;20060;-79
2023/10/28 01:24:39;;;;;;;22.17;10.25;;;10.00;99.90;;;;;;5036126;28;20060;-79
2023/10/28 01:27:05;;;;;;;21.98;10.43;;;10.00;99.90;;;;;;5038098;28;20032;-79
2023/10/28 01:29:32;;;;;;;22.35;9.95;;;10.00;99.90;;;;;;5037644;28;20037;-81
2023/10/28 01:31:58;;;;;;;21.00;9.50;;;10.00;99.90;;;;;;5033639;28;20029;-80
2023/10/28 01:34:24;;;;;;;23.40;11.10;;;9.90;99.90;;;;;;5037689;28;20025;-80
2023/10/28 01:36:50;;;;;;;18.05;9.48;;;9.90;99.90;;;;;;5032901;28;20093;-79
2023/10/28 01:39:16;;;;;;;20.58;9.60;;;9.90;99.90;;;;;;5035445;28;20067;-79
2023/10/28 01:41:42;;;;;;;20.77;9.70;;;10.00;99.90;;;;;;5037688;28;20128;-79
2023/10/28 01:44:08;;;;;;;19.35;10.02;;;10.00;99.90;;;;;;5035616;28;20029;-80
2023/10/28 01:46:34;;;;;;;24.25;10.32;;;10.00;99.90;;;;;;5037792;28;20022;-81
2023/10/28 01:48:59;;;;;;;20.90;10.32;;;9.90;99.90;;;;;;5036615;28;21445;-77
2023/10/28 01:51:25;;;;;;;21.90;9.98;;;9.90;99.90;;;;;;5035764;28;20025;-80
2023/10/28 01:53:51;;;;;;;21.95;10.20;;;9.90;99.90;;;;;;5038208;28;20029;-79
2023/10/28 01:56:28;;;;;;;20.95;10.13;;;9.90;99.90;;;;;;5036333;28;20026;-81
2023/10/28 01:58:54;;;;;;;19.15;9.68;;;9.80;99.90;;;;;;5035917;28;20030;-80
2023/10/28 02:01:20;;;;;;;19.45;9.45;;;9.90;99.90;;;;;;5036472;28;20072;-78
2023/10/28 02:03:46;;;;;;;19.75;9.45;;;9.90;99.90;;;;;;5037320;28;20091;-80
2023/10/28 02:06:12;;;;;;;16.85;9.25;;;9.90;99.90;;;;;;5035758;28;20465;-78
2023/10/28 02:08:38;;;;;;;20.73;9.77;;;9.90;99.90;;;;;;5037319;28;20041;-78
2023/10/28 02:11:03;;;;;;;19.33;10.07;;;9.90;99.90;;;;;;5037500;28;20085;-81
2023/10/28 02:13:29;;;;;;;21.75;9.98;;;9.90;99.90;;;;;;5036157;28;20032;-79
2023/10/28 02:15:54;;;;;;;17.92;9.18;;;9.90;99.90;;;;;;5036851;28;20029;-80
2023/10/28 02:18:22;;;;;;;18.10;9.27;;;9.90;99.90;;;;;;5037118;28;20463;-79
2023/10/28 02:20:48;;;;;;;22.33;10.48;;;9.90;99.90;;;;;;5036315;28;20022;-78
2023/10/28 02:23:14;;;;;;;19.33;9.82;;;9.90;99.90;;;;;;5037218;28;20092;-80
2023/10/28 02:25:42;;;;;;;21.45;9.50;;;9.90;99.90;;;;;;5036969;28;20025;-77
2023/10/28 02:28:11;;;;;;;21.88;9.93;;;9.90;99.90;;;;;;5039124;28;20021;-79
2023/10/28 02:30:40;;;;;;;17.38;9.45;;;9.90;99.90;;;;;;5039507;28;20034;-80
2023/10/28 02:33:07;;;;;;;17.33;9.00;;;9.90;99.90;;;;;;5038773;28;20116;-79
2023/10/28 02:35:36;;;;;;;17.00;9.77;;;9.90;99.90;;;;;;5039549;28;20034;-78
2023/10/28 02:38:01;;;;;;;21.70;10.10;;;10.00;99.90;;;;;;5040712;28;20393;-78
2023/10/28 02:40:27;;;;;;;20.02;10.07;;;9.90;99.90;;;;;;5040927;28;20069;-80
2023/10/28 02:42:53;;;;;;;19.42;10.50;;;10.00;99.90;;;;;;5040905;28;20042;-81
2023/10/28 02:45:19;;;;;;;19.70;9.48;;;10.00;99.90;;;;;;5041483;28;20030;-78
2023/10/28 02:47:45;;;;;;;21.65;9.88;;;10.00;99.90;;;;;;5039450;28;21435;-79
2023/10/28 02:50:12;;;;;;;20.38;11.00;;;9.90;99.90;;;;;;5039896;28;20038;-79
2023/10/28 02:52:38;;;;;;;22.50;10.25;;;9.80;99.90;;;;;;5036875;28;20109;-79
2023/10/28 02:55:05;;;;;;;22.88;10.60;;;9.90;99.90;;;;;;5040225;28;20053;-78
2023/10/28 02:57:32;;;;;;;24.75;10.73;;;9.90;99.90;;;;;;5041299;28;20017;-79
2023/10/28 02:59:58;;;;;;;20.60;10.48;;;9.90;99.90;;;;;;5039748;28;20013;-78
2023/10/28 03:02:23;;;;;;;21.35;10.52;;;9.90;99.90;;;;;;5040139;28;20025;-79
2023/10/28 03:04:49;;;;;;;24.08;10.32;;;9.80;99.90;;;;;;5040081;28;20033;-79
2023/10/28 03:07:14;;;;;;;19.50;10.25;;;9.80;99.90;;;;;;5039198;28;20367;-78
2023/10/28 03:09:40;;;;;;;20.88;10.80;;;9.90;99.90;;;;;;5038670;28;20049;-79
2023/10/28 03:12:06;;;;;;;25.65;10.85;;;10.00;99.90;;;;;;5039129;28;20033;-78
2023/10/28 03:14:34;;;;;;;23.55;11.60;;;9.80;99.90;;;;;;5040288;28;20029;-77
2023/10/28 03:17:00;;;;;;;20.95;10.57;;;9.80;99.90;;;;;;5036022;28;20094;-77
2023/10/28 03:19:26;;;;;;;22.50;10.80;;;9.80;99.90;;;;;;5038593;28;20053;-78
2023/10/28 03:21:51;;;;;;;22.83;10.95;;;9.80;99.90;;;;;;5039423;28;20032;-78
2023/10/28 03:24:17;;;;;;;22.08;10.65;;;9.80;99.90;;;;;;5039029;28;20466;-77
2023/10/28 03:26:43;;;;;;;22.25;10.77;;;9.90;99.90;;;;;;5040193;28;20022;-76
2023/10/28 03:29:08;;;;;;;25.48;11.40;;;9.80;99.90;;;;;;5039575;28;20041;-78
2023/10/28 03:31:34;;;;;;;21.48;11.27;;;9.80;99.90;;;;;;5039799;28;20044;-78
2023/10/28 03:33:59;;;;;;;22.67;10.68;;;9.80;99.90;;;;;;5039451;28;20025;-79
2023/10/28 03:36:25;;;;;;;23.63;10.38;;;9.80;99.90;;;;;;5037371;28;20045;-78
2023/10/28 03:38:55;;;;;;;22.63;11.45;;;9.80;99.90;;;;;;5039306;28;20520;-78
2023/10/28 03:41:21;;;;;;;24.83;10.93;;;9.80;99.90;;;;;;5037135;28;20104;-79
2023/10/28 03:43:47;;;;;;;24.80;11.48;;;9.80;99.90;;;;;;5036581;28;20068;-79
2023/10/28 03:46:20;;;;;;;24.48;11.25;;;9.80;99.90;;;;;;5039422;28;20037;-79
2023/10/28 03:48:46;;;;;;;25.15;10.82;;;9.80;99.90;;;;;;5038477;28;20036;-78
2023/10/28 03:51:12;;;;;;;25.00;11.68;;;9.80;99.90;;;;;;5037436;28;20088;-78
2023/10/28 03:53:38;;;;;;;26.30;11.50;;;9.90;99.90;;;;;;5037386;28;20513;-80
2023/10/28 03:56:05;;;;;;;27.80;11.52;;;9.80;99.90;;;;;;5037606;28;20022;-79
2023/10/28 03:58:31;;;;;;;26.52;11.32;;;9.90;99.90;;;;;;5039164;28;20025;-78
2023/10/28 04:00:56;;;;;;;23.15;11.27;;;9.80;99.90;;;;;;5038720;28;20048;-78
2023/10/28 04:03:23;;;;;;;24.60;11.32;;;9.80;99.90;;;;;;5037514;28;20056;-77
2023/10/28 04:05:50;;;;;;;24.17;10.98;;;9.80;99.90;;;;;;5038318;28;20053;-78
2023/10/28 04:08:16;;;;;;;23.80;11.63;;;9.80;99.90;;;;;;5038088;28;20037;-77
2023/10/28 04:10:42;;;;;;;23.00;11.52;;;9.80;99.90;;;;;;5036595;28;20120;-78
2023/10/28 04:13:08;;;;;;;23.48;10.75;;;9.80;99.90;;;;;;5038453;28;20026;-76
2023/10/28 04:15:35;;;;;;;25.15;11.35;;;9.80;99.90;;;;;;5039972;28;20025;-76
2023/10/28 04:18:01;;;;;;;21.92;11.18;;;9.80;99.90;;;;;;5038424;28;20058;-78
2023/10/28 04:20:27;;;;;;;22.27;10.57;;;9.80;99.90;;;;;;5037259;28;20033;-77
2023/10/28 04:23:05;;;;;;;27.13;11.25;;;9.80;99.90;;;;;;5039525;28;20052;-78
2023/10/28 04:25:31;;;;;;;24.75;11.13;;;9.80;99.90;;;;;;5038579;28;20021;-78
2023/10/28 04:27:57;;;;;;;26.50;11.57;;;9.70;99.90;;;;;;5038708;28;20044;-76
2023/10/28 04:30:22;;;;;;;24.05;11.18;;;9.70;99.90;;;;;;5038794;28;20516;-77
2023/10/28 04:32:48;;;;;;;25.35;11.70;;;9.70;99.90;;;;;;5038745;28;20051;-80
2023/10/28 04:35:15;;;;;;;26.80;11.10;;;9.70;99.90;;;;;;5038327;28;20999;-78
2023/10/28 04:37:40;;;;;;;23.42;11.38;;;9.70;99.90;;;;;;5038762;28;20026;-76
2023/10/28 04:40:07;;;;;;;28.00;11.65;;;9.70;99.90;;;;;;5037646;28;20063;-78
2023/10/28 04:42:32;;;;;;;31.15;11.35;;;9.70;99.90;;;;;;5039184;28;20068;-77
2023/10/28 04:44:58;;;;;;;30.63;12.43;;;9.70;99.90;;;;;;5038580;28;20036;-77
2023/10/28 04:47:24;;;;;;;27.48;11.27;;;9.70;99.90;;;;;;5038099;28;20081;-78
2023/10/28 04:49:50;;;;;;;29.52;12.73;;;9.70;99.90;;;;;;5036519;28;20051;-79
2023/10/28 04:52:15;;;;;;;32.42;12.80;;;9.70;99.90;;;;;;5033675;28;20057;-77
2023/10/28 04:54:41;;;;;;;30.90;12.38;;;9.70;99.90;;;;;;5032249;28;20030;-78
2023/10/28 04:57:09;;;;;;;28.45;12.23;;;9.70;99.90;;;;;;5039948;28;20055;-78
2023/10/28 04:59:34;;;;;;;35.10;13.07;;;9.70;99.90;;;;;;5038429;28;20014;-78
2023/10/28 05:02:00;;;;;;;37.80;14.35;;;9.70;99.90;;;;;;5039305;28;20751;-79
2023/10/28 05:04:27;;;;;;;41.88;13.93;;;9.70;99.90;;;;;;5039298;28;20037;-79
2023/10/28 05:06:53;;;;;;;42.38;13.52;;;9.70;99.90;;;;;;5038441;28;20040;-77
2023/10/28 05:09:22;;;;;;;45.47;13.73;;;9.70;99.90;;;;;;5038804;28;20052;-76
2023/10/28 05:11:55;;;;;;;43.88;13.60;;;9.70;99.90;;;;;;5039796;28;20025;-76
2023/10/28 05:14:24;;;;;;;45.50;14.73;;;9.80;99.90;;;;;;5039757;28;20021;-78
2023/10/28 05:16:54;;;;;;;58.08;14.10;;;9.70;99.90;;;;;;5038953;28;20032;-76
2023/10/28 05:19:23;;;;;;;45.72;13.65;;;9.80;99.90;;;;;;5037813;28;20033;-77
2023/10/28 05:21:49;;;;;;;40.50;13.60;;;9.70;99.90;;;;;;5038073;28;20025;-77
2023/10/28 05:24:15;;;;;;;44.17;15.02;;;9.80;99.90;;;;;;5038965;28;20140;-78
2023/10/28 05:26:42;;;;;;;53.40;13.93;;;9.80;99.90;;;;;;5038707;28;20026;-78
2023/10/28 05:29:08;;;;;;;48.03;14.05;;;9.70;99.90;;;;;;5036784;28;20045;-76
2023/10/28 05:31:35;;;;;;;57.58;13.63;;;9.80;99.90;;;;;;5038788;28;20021;-78
2023/10/28 05:34:01;;;;;;;43.28;13.30;;;9.70;99.90;;;;;;5038622;28;20017;-77
2023/10/28 05:36:27;;;;;;;74.70;15.90;;;9.80;99.90;;;;;;5035366;28;20068;-77
2023/10/28 05:38:54;;;;;;;37.03;13.80;;;9.80;99.90;;;;;;5035440;28;20025;-75
2023/10/28 05:41:20;;;;;;;60.28;14.30;;;9.80;99.90;;;;;;5033588;28;20558;-76
2023/10/28 05:43:46;;;;;;;59.95;15.82;;;9.80;99.90;;;;;;5038648;28;20223;-75
2023/10/28 05:46:13;;;;;;;61.80;14.50;;;9.80;99.90;;;;;;5038225;28;20021;-77
2023/10/28 05:48:39;;;;;;;40.58;13.70;;;9.80;99.90;;;;;;5039358;28;20032;-76
2023/10/28 05:51:05;;;;;;;38.38;14.02;;;9.80;99.90;;;;;;5037784;28;20028;-77
2023/10/28 05:53:31;;;;;;;42.15;14.45;;;9.90;99.90;;;;;;5038729;28;20025;-76
2023/10/28 05:55:57;;;;;;;60.75;14.20;;;9.80;99.90;;;;;;5040084;28;20041;-77
2023/10/28 05:58:23;;;;;;;46.97;14.38;;;9.80;99.90;;;;;;5038766;28;20056;-77
2023/10/28 06:00:49;;;;;;;45.78;15.38;;;9.80;99.90;;;;;;5034990;28;20048;-77
2023/10/28 06:03:15;;;;;;;46.38;15.05;;;9.80;99.90;;;;;;5036392;28;20029;-78
2023/10/28 06:05:40;;;;;;;38.80;14.30;;;9.80;99.90;;;;;;5038001;28;20026;-77
2023/10/28 06:08:08;;;;;;;51.72;14.73;;;9.80;99.90;;;;;;5036836;28;20022;-76
2023/10/28 06:10:34;;;;;;;50.80;15.45;;;9.80;99.90;;;;;;5038121;28;20041;-77
2023/10/28 06:13:01;;;;;;;66.53;15.27;;;9.90;99.90;;;;;;5036371;28;20025;-78
2023/10/28 06:15:27;;;;;;;65.43;15.52;;;9.80;99.90;;;;;;5038680;28;20484;-78
2023/10/28 06:17:52;;;;;;;52.65;14.70;;;9.80;99.90;;;;;;5038669;28;20053;-77
2023/10/28 06:20:20;;;;;;;46.80;14.82;;;9.80;99.90;;;;;;5037733;28;20085;-80
2023/10/28 06:22:46;;;;;;;62.55;15.13;;;9.80;99.90;;;;;;5039029;28;20022;-77
2023/10/28 06:25:14;;;;;;;58.33;14.70;;;9.80;99.90;;;;;;5039597;28;20454;-76
2023/10/28 06:27:40;;;;;;;81.38;15.98;;;9.80;99.90;;;;;;5039164;28;20026;-77
2023/10/28 06:30:06;;;;;;;48.45;14.32;;;9.80;99.90;;;;;;5037745;28;20064;-78
2023/10/28 06:32:32;;;;;;;46.75;15.48;;;9.80;99.90;;;;;;5039019;28;20022;-77
2023/10/28 06:34:58;;;;;;;45.25;15.05;;;9.80;99.90;;;;;;5039928;28;20041;-77
2023/10/28 06:37:23;;;;;;;42.72;13.90;;;9.70;99.90;;;;;;5038736;28;20021;-77
2023/10/28 06:39:49;;;;;;;39.67;14.57;;;9.80;99.90;;;;;;5039996;28;20083;-78
2023/10/28 06:42:17;;;;;;;45.95;14.95;;;9.90;99.90;;;;;;5038177;28;20045;-76
2023/10/28 06:44:43;;;;;;;45.13;14.90;;;9.80;99.90;;;;;;5038952;28;20067;-78
2023/10/28 06:47:10;;;;;;;44.55;13.73;;;9.80;99.90;;;;;;5038970;28;20026;-78
2023/10/28 06:49:36;;;;;;;56.67;14.23;;;9.80;99.90;;;;;;5038302;28;20382;-79
2023/10/28 06:52:01;;;;;;;52.20;14.25;;;9.80;99.90;;;;;;5037325;28;20808;-77
2023/10/28 06:54:27;;;;;;;44.40;14.57;;;9.80;99.90;;;;;;5039529;28;20026;-78
2023/10/28 06:56:56;;;;;;;44.85;14.23;;;9.70;99.90;;;;;;5039403;28;20022;-77
2023/10/28 06:59:23;;;;;;;50.08;13.50;;;9.90;99.90;;;;;;5036191;28;20044;-77
2023/10/28 07:01:49;;;;;;;44.55;13.70;;;9.80;99.90;;;;;;5038670;28;20021;-76
2023/10/28 07:04:15;;;;;;;50.78;13.85;;;9.80;99.90;;;;;;5039023;28;20389;-76
2023/10/28 07:06:45;;;;;;;43.70;14.13;;;10.00;99.90;;;;;;5037695;28;20029;-76
2023/10/28 07:09:10;;;;;;;46.17;14.02;;;9.80;99.90;;;;;;5037061;28;20037;-79
2023/10/28 07:11:36;;;;;;;57.78;14.32;;;9.80;99.90;;;;;;5039514;28;20040;-78
2023/10/28 07:14:02;;;;;;;57.53;15.05;;;9.90;99.90;;;;;;5038887;28;20026;-77
2023/10/28 07:16:28;;;;;;;45.25;13.95;;;9.80;99.90;;;;;;5040790;28;20025;-78
2023/10/28 07:18:54;;;;;;;57.30;14.35;;;9.90;99.90;;;;;;5041671;28;20159;-76
2023/10/28 07:21:23;;;;;;;61.33;15.77;;;9.80;99.90;;;;;;5041518;28;20528;-81
2023/10/28 07:23:49;;;;;;;58.28;16.35;;;9.80;99.90;;;;;;5041087;28;20101;-80
2023/10/28 07:26:15;;;;;;;51.92;16.45;;;9.80;99.90;;;;;;5040016;28;20024;-77
2023/10/28 07:28:49;;;;;;;49.67;15.00;;;9.80;99.90;;;;;;5042213;28;20045;-76
2023/10/28 07:31:16;;;;;;;57.22;17.08;;;9.80;99.90;;;;;;5041733;28;20030;-77
2023/10/28 07:33:41;;;;;;;54.97;15.77;;;9.90;99.90;;;;;;5038986;28;20473;-77
2023/10/28 07:36:08;;;;;;;56.47;15.85;;;9.90;99.90;;;;;;5032639;28;20067;-78
2023/10/28 07:38:33;;;;;;;68.22;16.02;;;9.90;99.90;;;;;;5030429;28;20072;-78
2023/10/28 07:41:00;;;;;;;66.80;16.83;;;9.90;99.90;;;;;;5037894;28;20046;-79
2023/10/28 07:43:26;;;;;;;65.93;17.10;;;10.00;99.90;;;;;;5040709;28;20143;-78
2023/10/28 07:45:52;;;;;;;61.08;17.35;;;9.90;99.90;;;;;;5035617;28;20040;-78
2023/10/28 07:48:18;;;;;;;56.70;17.60;;;10.00;99.90;;;;;;5037575;28;20469;-80
2023/10/28 07:50:43;;;;;;;56.35;15.38;;;9.90;99.90;;;;;;5041326;28;20037;-78
2023/10/28 07:53:10;;;;;;;68.25;18.60;;;9.90;99.90;;;;;;5042181;28;20026;-76
2023/10/28 07:55:38;;;;;;;65.03;18.35;;;10.00;99.90;;;;;;5042001;28;20017;-78
2023/10/28 07:58:05;;;;;;;67.32;18.38;;;10.00;99.90;;;;;;5039773;28;20045;-76
2023/10/28 08:00:32;;;;;;;67.95;19.17;;;10.00;99.90;;;;;;5038277;28;20116;-78
2023/10/28 08:02:58;;;;;;;62.55;18.40;;;10.00;99.90;;;;;;5041128;28;20125;-76
2023/10/28 08:05:24;;;;;;;66.45;18.33;;;10.00;99.90;;;;;;5037333;28;20060;-79
2023/10/28 08:07:50;;;;;;;68.72;18.65;;;10.00;99.90;;;;;;5036970;28;20029;-78
2023/10/28 08:10:22;;;;;;;67.80;18.75;;;10.10;99.90;;;;;;5036036;28;20055;-77
2023/10/28 08:12:52;;;;;;;58.67;18.10;;;10.00;99.90;;;;;;5041744;28;20029;-78
2023/10/28 08:15:20;;;;;;;66.80;18.05;;;10.00;99.90;;;;;;5033893;28;20026;-80
2023/10/28 08:17:45;;;;;;;65.32;19.70;;;10.10;99.90;;;;;;5035535;28;20818;-76
2023/10/28 08:20:14;;;;;;;72.43;19.52;;;10.10;99.90;;;;;;5038941;28;20022;-77
2023/10/28 08:22:40;;;;;;;62.67;18.67;;;10.10;99.90;;;;;;5029710;28;20068;-77
2023/10/28 08:25:06;;;;;;;67.15;19.70;;;10.20;99.90;;;;;;5037179;28;20017;-79
2023/10/28 08:27:34;;;;;;;69.55;20.58;;;10.20;99.90;;;;;;5035582;28;20030;-78
2023/10/28 08:30:03;;;;;;;62.65;19.52;;;10.10;99.90;;;;;;5036026;28;20037;-78
2023/10/28 08:32:31;;;;;;;69.38;20.02;;;10.20;99.90;;;;;;5054750;28;20025;-77
2023/10/28 08:35:09;;;;;;;74.88;20.52;;;10.20;99.90;;;;;;5038612;28;20026;-77
2023/10/28 08:37:35;;;;;;;72.20;20.25;;;10.20;99.90;;;;;;5039419;28;20077;-79
2023/10/28 08:40:01;;;;;;;75.85;21.02;;;10.20;99.90;;;;;;5040548;28;20022;-77
2023/10/28 08:42:27;;;;;;;65.93;19.92;;;10.30;99.90;;;;;;5040070;28;20017;-78
2023/10/28 08:44:53;;;;;;;64.70;20.60;;;10.30;99.90;;;;;;5039080;28;20081;-77
2023/10/28 08:47:23;;;;;;;73.20;20.70;;;10.30;99.90;;;;;;5034583;28;20053;-78
2023/10/28 08:49:51;;;;;;;69.55;21.52;;;10.30;99.90;;;;;;5038097;28;20041;-77
2023/10/28 08:52:22;;;;;;;70.72;22.38;;;10.30;99.90;;;;;;5038936;28;20041;-77
2023/10/28 08:54:47;;;;;;;80.43;23.83;;;10.40;99.90;;;;;;5033770;28;20026;-77
2023/10/28 08:57:15;;;;;;;74.45;22.05;;;10.30;99.90;;;;;;5033896;28;20056;-80
2023/10/28 08:59:41;;;;;;;73.60;21.65;;;10.30;99.90;;;;;;5037729;28;20032;-77
2023/10/28 09:02:10;;;;;;;69.75;21.50;;;10.40;99.90;;;;;;5034435;28;20034;-78
2023/10/28 09:04:36;;;;;;;82.28;23.42;;;10.40;99.90;;;;;;5035953;28;20029;-77
2023/10/28 09:07:04;;;;;;;76.05;23.33;;;10.30;99.90;;;;;;5035883;28;20037;-77
2023/10/28 09:09:30;;;;;;;83.68;23.60;;;10.40;99.90;;;;;;5034515;28;20040;-76
2023/10/28 09:11:57;;;;;;;80.38;23.50;;;10.40;99.90;;;;;;5038690;28;20041;-82
2023/10/28 09:14:23;;;;;;;86.00;24.20;;;10.40;99.90;;;;;;5039132;28;20022;-78
2023/10/28 09:16:48;;;;;;;84.72;24.85;;;10.50;99.90;;;;;;5038304;28;20022;-81
2023/10/28 09:19:22;;;;;;;93.13;25.48;;;10.40;99.90;;;;;;5038235;28;20033;-79
2023/10/28 09:21:48;;;;;;;74.27;22.57;;;10.40;99.90;;;;;;5040832;28;20056;-80
2023/10/28 09:24:15;;;;;;;74.18;24.40;;;10.60;99.90;;;;;;5039598;28;20060;-79
2023/10/28 09:26:41;;;;;;;77.07;24.85;;;10.60;99.90;;;;;;5039135;28;20075;-77
2023/10/28 09:29:07;;;;;;;76.25;24.55;;;10.70;99.90;;;;;;5038813;28;20037;-79
2023/10/28 09:31:33;;;;;;;79.43;25.42;;;10.50;99.90;;;;;;5039067;28;20025;-78
2023/10/28 09:34:00;;;;;;;78.13;24.98;;;10.60;99.90;;;;;;5040183;28;20021;-79
2023/10/28 09:36:26;;;;;;;76.60;25.38;;;10.60;99.90;;;;;;5036712;28;21243;-79
2023/10/28 09:38:54;;;;;;;80.22;26.63;;;10.60;99.90;;;;;;5039169;28;20351;-81
2023/10/28 09:41:21;;;;;;;72.53;25.33;;;10.60;99.90;;;;;;5037565;28;20053;-78
2023/10/28 09:43:47;;;;;;;76.65;25.20;;;10.70;99.90;;;;;;5038242;28;20025;-77
2023/10/28 09:46:18;;;;;;;87.63;27.42;;;10.90;99.90;;;;;;5037765;28;20056;-78
2023/10/28 09:48:48;;;;;;;77.60;24.83;;;10.80;99.90;;;;;;5040809;28;20036;-78
2023/10/28 09:51:18;;;;;;;86.35;27.40;;;10.80;99.90;;;;;;5038610;28;20334;-79
2023/10/28 09:53:50;;;;;;;72.03;24.70;;;11.00;99.90;;;;;;5038386;28;20029;-77
2023/10/28 09:56:17;;;;;;;63.97;23.50;;;10.90;99.90;;;;;;5040229;28;20101;-78
2023/10/28 09:58:52;;;;;;;68.70;25.50;;;10.90;99.90;;;;;;5037673;28;20026;-79
2023/10/28 10:01:37;;;;;;;69.07;24.83;;;10.90;99.90;;;;;;5039301;28;20087;-79
2023/10/28 10:04:11;;;;;;;62.83;23.60;;;11.00;99.90;;;;;;5040658;28;20033;-82
2023/10/28 10:06:37;;;;;;;66.57;23.80;;;11.00;99.90;;;;;;5039504;28;20033;-76
2023/10/28 10:09:06;;;;;;;53.55;23.38;;;10.90;99.90;;;;;;5037986;28;20034;-81
2023/10/28 10:11:32;;;;;;;63.92;23.40;;;11.10;99.90;;;;;;5039927;28;20033;-83
2023/10/28 10:14:09;;;;;;;60.65;23.10;;;11.10;99.90;;;;;;5037727;28;20352;-78
2023/10/28 10:17:02;;;;;;;55.72;21.30;;;11.20;99.90;;;;;;5037552;28;20081;-81
2023/10/28 10:19:35;;;;;;;53.72;19.85;;;11.20;99.90;;;;;;5038505;28;20120;-79
2023/10/28 10:22:06;;;;;;;46.15;19.25;;;11.20;99.90;;;;;;5038127;28;20036;-76
2023/10/28 10:24:32;;;;;;;42.50;17.20;;;11.20;99.90;;;;;;5038432;28;20025;-76
2023/10/28 10:27:05;;;;;;;45.95;18.55;;;11.20;99.90;;;;;;5037273;28;20029;-79
2023/10/28 10:29:41;;;;;;;45.37;19.30;;;11.20;99.90;;;;;;5038271;28;20041;-83
2023/10/28 10:32:17;;;;;;;40.10;16.60;;;11.20;99.90;;;;;;5038268;28;20075;-83
2023/10/28 10:34:45;;;;;;;46.38;17.85;;;11.10;99.90;;;;;;5038255;28;20051;-79
2023/10/28 10:37:33;;;;;;;44.13;18.33;;;11.20;99.90;;;;;;5037769;28;20021;-80
2023/10/28 10:40:07;;;;;;;46.70;17.75;;;11.20;99.90;;;;;;5037857;28;20017;-80
2023/10/28 10:42:33;;;;;;;;;;;11.30;99.90;;;;;;5037154;28;20018;-79
2023/10/28 10:45:01;;;;;;;37.58;16.05;;;11.30;99.90;;;;;;5038754;28;19920;-78
2023/10/28 10:47:27;;;;;;;38.47;16.73;;;11.30;99.90;;;;;;5039776;28;20505;-82
2023/10/28 10:49:54;;;;;;;40.95;16.83;;;11.30;99.90;;;;;;5041177;28;20052;-80
2023/10/28 10:52:20;;;;;;;41.17;17.30;;;11.40;99.90;;;;;;5041659;28;20456;-80
2023/10/28 10:54:46;;;;;;;35.45;15.32;;;11.40;99.90;;;;;;5041943;28;21275;-78
2023/10/28 10:57:12;;;;;;;36.85;16.42;;;11.50;99.90;;;;;;5041789;28;20466;-79
2023/10/28 10:59:41;;;;;;;29.77;16.00;;;11.50;99.90;;;;;;5041405;28;20025;-78
2023/10/28 11:02:07;;;;;;;30.67;15.50;;;11.50;99.90;;;;;;5041931;28;20052;-77
2023/10/28 11:04:34;;;;;;;32.42;14.65;;;11.60;99.90;;;;;;5041033;28;20462;-78
2023/10/28 11:07:01;;;;;;;32.20;14.10;;;11.60;99.90;;;;;;5042127;28;20472;-76
2023/10/28 11:09:27;;;;;;;28.50;13.48;;;11.60;99.90;;;;;;5041753;28;20034;-79
2023/10/28 11:11:53;;;;;;;27.33;12.73;;;11.50;99.90;;;;;;5041584;28;20758;-76
2023/10/28 11:14:19;;;;;;;29.70;12.25;;;11.70;99.90;;;;;;5036799;28;20056;-77
2023/10/28 11:16:45;;;;;;;26.20;11.75;;;11.70;99.90;;;;;;5031489;28;20034;-78
2023/10/28 11:19:11;;;;;;;23.55;11.38;;;11.70;99.90;;;;;;5040829;28;20044;-77
2023/10/28 11:21:39;;;;;;;26.23;11.05;;;11.70;99.90;;;;;;5040277;28;20082;-76
2023/10/28 11:24:06;;;;;;;26.27;10.60;;;11.70;99.90;;;;;;5040392;28;20032;-78
2023/10/28 11:26:33;;;;;;;27.90;12.35;;;11.60;99.90;;;;;;5040903;28;20127;-74
2023/10/28 11:29:00;;;;;;;27.75;11.32;;;11.60;99.90;;;;;;5041810;28;20026;-76
2023/10/28 11:31:30;;;;;;;28.48;11.77;;;11.70;99.90;;;;;;5041819;28;20155;-73
2023/10/28 11:34:00;;;;;;;23.42;11.35;;;11.70;99.90;;;;;;5041784;28;20055;-77
2023/10/28 11:36:26;;;;;;;26.65;11.57;;;11.80;99.90;;;;;;5036743;28;20064;-74
2023/10/28 11:38:52;;;;;;;23.83;11.05;;;11.70;99.90;;;;;;5040807;28;20021;-77
2023/10/28 11:41:20;;;;;;;22.77;11.52;;;11.70;99.90;;;;;;5042198;28;20079;-79
2023/10/28 11:43:49;;;;;;;23.95;11.88;;;11.70;99.90;;;;;;5039918;28;21172;-78
2023/10/28 11:46:15;;;;;;;24.15;11.50;;;11.80;99.90;;;;;;5039033;28;20044;-79
2023/10/28 11:48:44;;;;;;;19.10;11.02;;;11.90;99.90;;;;;;5038989;28;20049;-76
2023/10/28 11:51:09;;;;;;;37.05;12.13;;;11.90;99.90;;;;;;5039777;28;20037;-76
2023/10/28 11:53:37;;;;;;;20.65;11.23;;;12.00;99.90;;;;;;5036389;28;20172;-76
2023/10/28 11:56:03;;;;;;;27.45;12.10;;;12.00;99.90;;;;;;5040202;28;20013;-77
2023/10/28 11:58:29;;;;;;;27.73;11.50;;;12.00;99.90;;;;;;5041382;28;20448;-75
2023/10/28 12:00:55;;;;;;;22.35;11.20;;;12.00;99.90;;;;;;5039767;28;20044;-80
2023/10/28 12:03:22;;;;;;;24.20;12.15;;;12.00;99.90;;;;;;5037398;28;20034;-71
2023/10/28 12:05:47;;;;;;;20.90;10.52;;;12.00;99.90;;;;;;5039773;28;20060;-75
2023/10/28 12:08:13;;;;;;;19.50;10.25;;;12.00;99.90;;;;;;5040608;28;20025;-76
2023/10/28 12:10:43;;;;;;;20.67;9.98;;;12.00;99.90;;;;;;5041144;28;20051;-76
2023/10/28 12:13:18;;;;;;;16.27;9.80;;;12.00;99.90;;;;;;5038931;28;20014;-76
2023/10/28 12:15:44;;;;;;;15.57;8.77;;;12.00;99.90;;;;;;5040995;28;20036;-75
2023/10/28 12:18:10;;;;;;;19.35;9.05;;;12.00;99.90;;;;;;5039499;28;20634;-75
2023/10/28 12:20:36;;;;;;;18.25;8.75;;;12.10;99.90;;;;;;5038287;28;20021;-76
2023/10/28 12:23:02;;;;;;;17.67;7.85;;;12.10;99.90;;;;;;5040504;28;20021;-75
2023/10/28 12:25:28;;;;;;;17.73;8.05;;;12.20;99.90;;;;;;5041129;28;20040;-75
2023/10/28 12:27:54;;;;;;;18.75;8.10;;;12.20;99.90;;;;;;5040980;28;20049;-74
2023/10/28 12:30:21;;;;;;;17.75;7.65;;;12.10;99.90;;;;;;5039124;28;20045;-77
2023/10/28 12:32:50;;;;;;;13.15;6.68;;;12.10;99.90;;;;;;5038051;28;20101;-76